sensor_id;sensor_type;location;lat;lon;timestamp;pressure;altitude;pressure_sealevel;temperature;humidity
33697;BME280;20031;43.416;23.232;2023-11-21T00:01:57;99767.63;;;7.37;75.64
33697;BME280;20031;43.416;23.232;2023-11-21T00:04:23;99765.97;;;7.36;76.12
33697;BME280;20031;43.416;23.232;2023-11-21T00:06:48;99763.25;;;7.38;75.86
33697;BME280;20031;43.416;23.232;2023-11-21T00:09:14;99764.88;;;7.39;75.63
33697;BME280;20031;43.416;23.232;2023-11-21T00:11:44;99773.34;;;7.41;75.71
33697;BME280;20031;43.416;23.232;2023-11-21T00:14:10;99765.56;;;7.41;75.15
33697;BME280;20031;43.416;23.232;2023-11-21T00:16:36;99764.59;;;7.42;75.31
33697;BME280;20031;43.416;23.232;2023-11-21T00:19:02;99771.16;;;7.36;74.69
33697;BME280;20031;43.416;23.232;2023-11-21T00:21:27;99768.78;;;7.25;74.64
33697;BME280;20031;43.416;23.232;2023-11-21T00:23:52;99769.59;;;7.26;74.41
33697;BME280;20031;43.416;23.232;2023-11-21T00:26:18;99767.97;;;7.25;75.06
33697;BME280;20031;43.416;23.232;2023-11-21T00:28:43;99768.22;;;7.31;74.83
33697;BME280;20031;43.416;23.232;2023-11-21T00:31:09;99761.94;;;7.34;74.72
33697;BME280;20031;43.416;23.232;2023-11-21T00:33:34;99767.91;;;7.34;74.60
33697;BME280;20031;43.416;23.232;2023-11-21T00:36:00;99769.56;;;7.35;74.05
33697;BME280;20031;43.416;23.232;2023-11-21T00:38:26;99773.59;;;7.38;73.79
33697;BME280;20031;43.416;23.232;2023-11-21T00:40:52;99772.50;;;7.40;73.96
33697;BME280;20031;43.416;23.232;2023-11-21T00:43:24;99774.16;;;7.41;73.51
33697;BME280;20031;43.416;23.232;2023-11-21T00:45:49;99776.59;;;7.43;73.74
33697;BME280;20031;43.416;23.232;2023-11-21T00:48:15;99772.22;;;7.43;73.40
33697;BME280;20031;43.416;23.232;2023-11-21T00:50:40;99764.75;;;7.40;73.42
33697;BME280;20031;43.416;23.232;2023-11-21T00:53:06;99771.56;;;7.41;73.33
33697;BME280;20031;43.416;23.232;2023-11-21T00:55:32;99763.78;;;7.41;72.88
33697;BME280;20031;43.416;23.232;2023-11-21T00:57:58;99770.88;;;7.39;72.58
33697;BME280;20031;43.416;23.232;2023-11-21T01:00:25;99766.81;;;7.37;73.12
33697;BME280;20031;43.416;23.232;2023-11-21T01:02:50;99765.97;;;7.36;73.09
33697;BME280;20031;43.416;23.232;2023-11-21T01:05:16;99762.44;;;7.37;73.35
33697;BME280;20031;43.416;23.232;2023-11-21T01:07:41;99760.81;;;7.36;73.63
33697;BME280;20031;43.416;23.232;2023-11-21T01:10:07;99764.09;;;7.38;73.66
33697;BME280;20031;43.416;23.232;2023-11-21T01:12:37;99754.66;;;7.37;73.77
33697;BME280;20031;43.416;23.232;2023-11-21T01:15:04;99755.31;;;7.39;73.90
33697;BME280;20031;43.416;23.232;2023-11-21T01:17:32;99756.16;;;7.40;73.66
33697;BME280;20031;43.416;23.232;2023-11-21T01:19:59;99760.25;;;7.42;73.15
33697;BME280;20031;43.416;23.232;2023-11-21T01:22:25;99759.56;;;7.40;72.87
33697;BME280;20031;43.416;23.232;2023-11-21T01:24:54;99762.22;;;7.31;72.82
33697;BME280;20031;43.416;23.232;2023-11-21T01:27:19;99754.34;;;7.23;72.56
33697;BME280;20031;43.416;23.232;2023-11-21T01:29:45;99749.97;;;7.23;73.43
33697;BME280;20031;43.416;23.232;2023-11-21T01:32:10;99746.94;;;7.28;73.27
33697;BME280;20031;43.416;23.232;2023-11-21T01:34:36;99749.13;;;7.32;73.46
33697;BME280;20031;43.416;23.232;2023-11-21T01:37:02;99748.00;;;7.35;73.13
33697;BME280;20031;43.416;23.232;2023-11-21T01:39:29;99743.81;;;7.34;73.97
33697;BME280;20031;43.416;23.232;2023-11-21T01:41:55;99749.63;;;7.36;74.04
33697;BME280;20031;43.416;23.232;2023-11-21T01:44:21;99747.84;;;7.36;74.16
33697;BME280;20031;43.416;23.232;2023-11-21T01:46:47;99748.88;;;7.26;73.91
33697;BME280;20031;43.416;23.232;2023-11-21T01:49:13;99738.78;;;7.06;73.44
33697;BME280;20031;43.416;23.232;2023-11-21T01:51:41;99734.06;;;6.92;74.14
33697;BME280;20031;43.416;23.232;2023-11-21T01:54:09;99733.81;;;6.85;74.34
33697;BME280;20031;43.416;23.232;2023-11-21T01:56:34;99732.50;;;6.81;74.70
33697;BME280;20031;43.416;23.232;2023-11-21T01:59:00;99740.41;;;6.80;74.65
33697;BME280;20031;43.416;23.232;2023-11-21T02:01:26;99727.19;;;6.83;74.96
33697;BME280;20031;43.416;23.232;2023-11-21T02:03:51;99721.56;;;6.87;75.54
33697;BME280;20031;43.416;23.232;2023-11-21T02:06:18;99723.28;;;6.96;75.58
33697;BME280;20031;43.416;23.232;2023-11-21T02:08:43;99727.22;;;7.00;75.31
33697;BME280;20031;43.416;23.232;2023-11-21T02:11:10;99718.38;;;7.03;75.26
33697;BME280;20031;43.416;23.232;2023-11-21T02:13:38;99724.34;;;7.03;75.25
33697;BME280;20031;43.416;23.232;2023-11-21T02:16:09;99725.22;;;6.94;74.74
33697;BME280;20031;43.416;23.232;2023-11-21T02:18:35;99734.94;;;6.83;74.55
33697;BME280;20031;43.416;23.232;2023-11-21T02:21:04;99736.63;;;6.74;74.86
33697;BME280;20031;43.416;23.232;2023-11-21T02:23:29;99743.59;;;6.64;74.70
33697;BME280;20031;43.416;23.232;2023-11-21T02:25:55;99740.59;;;6.59;74.85
33697;BME280;20031;43.416;23.232;2023-11-21T02:28:21;99748.50;;;6.58;75.55
33697;BME280;20031;43.416;23.232;2023-11-21T02:30:51;99741.53;;;6.58;75.70
33697;BME280;20031;43.416;23.232;2023-11-21T02:33:21;99736.13;;;6.61;75.59
33697;BME280;20031;43.416;23.232;2023-11-21T02:35:46;99740.28;;;6.72;75.70
33697;BME280;20031;43.416;23.232;2023-11-21T02:38:12;99729.91;;;6.81;76.01
33697;BME280;20031;43.416;23.232;2023-11-21T02:40:37;99727.13;;;6.92;76.23
33697;BME280;20031;43.416;23.232;2023-11-21T02:43:03;99735.13;;;6.99;76.86
33697;BME280;20031;43.416;23.232;2023-11-21T02:45:31;99731.44;;;7.01;76.64
33697;BME280;20031;43.416;23.232;2023-11-21T02:47:57;99731.81;;;7.06;76.72
33697;BME280;20031;43.416;23.232;2023-11-21T02:50:22;99731.69;;;7.08;76.76
33697;BME280;20031;43.416;23.232;2023-11-21T02:52:48;99732.34;;;7.09;76.96
33697;BME280;20031;43.416;23.232;2023-11-21T02:55:13;99725.25;;;7.11;77.16
33697;BME280;20031;43.416;23.232;2023-11-21T02:57:39;99727.69;;;7.13;77.10
33697;BME280;20031;43.416;23.232;2023-11-21T03:00:05;99725.91;;;7.13;76.69
33697;BME280;20031;43.416;23.232;2023-11-21T03:02:33;99725.53;;;7.09;76.33
33697;BME280;20031;43.416;23.232;2023-11-21T03:05:02;99728.56;;;7.04;76.30
33697;BME280;20031;43.416;23.232;2023-11-21T03:07:27;99724.34;;;7.03;75.92
33697;BME280;20031;43.416;23.232;2023-11-21T03:09:53;99723.53;;;7.03;75.75
33697;BME280;20031;43.416;23.232;2023-11-21T03:12:18;99725.00;;;7.05;75.76
33697;BME280;20031;43.416;23.232;2023-11-21T03:14:44;99714.09;;;7.11;75.34
33697;BME280;20031;43.416;23.232;2023-11-21T03:17:10;99716.38;;;7.14;75.05
33697;BME280;20031;43.416;23.232;2023-11-21T03:19:36;99717.03;;;7.16;74.75
33697;BME280;20031;43.416;23.232;2023-11-21T03:22:02;99709.94;;;7.18;74.75
33697;BME280;20031;43.416;23.232;2023-11-21T03:24:29;99710.47;;;7.21;74.89
33697;BME280;20031;43.416;23.232;2023-11-21T03:26:54;99700.91;;;7.22;74.98
33697;BME280;20031;43.416;23.232;2023-11-21T03:29:20;99690.56;;;7.22;75.19
33697;BME280;20031;43.416;23.232;2023-11-21T03:31:45;99686.88;;;7.24;75.42
33697;BME280;20031;43.416;23.232;2023-11-21T03:34:20;99684.78;;;7.28;75.88
33697;BME280;20031;43.416;23.232;2023-11-21T03:36:45;99687.13;;;7.31;76.06
33697;BME280;20031;43.416;23.232;2023-11-21T03:39:12;99689.41;;;7.34;76.25
33697;BME280;20031;43.416;23.232;2023-11-21T03:41:37;99691.03;;;7.35;76.27
33697;BME280;20031;43.416;23.232;2023-11-21T03:44:03;99694.44;;;7.35;76.02
33697;BME280;20031;43.416;23.232;2023-11-21T03:46:28;99707.09;;;7.38;75.87
33697;BME280;20031;43.416;23.232;2023-11-21T03:48:54;99710.50;;;7.39;76.30
33697;BME280;20031;43.416;23.232;2023-11-21T03:51:20;99718.94;;;7.41;76.52
33697;BME280;20031;43.416;23.232;2023-11-21T03:53:46;99711.19;;;7.41;76.55
33697;BME280;20031;43.416;23.232;2023-11-21T03:56:13;99711.97;;;7.41;76.64
33697;BME280;20031;43.416;23.232;2023-11-21T03:58:39;99710.19;;;7.42;76.74
33697;BME280;20031;43.416;23.232;2023-11-21T04:01:04;99708.59;;;7.41;76.84
33697;BME280;20031;43.416;23.232;2023-11-21T04:03:30;99714.72;;;7.40;76.40
33697;BME280;20031;43.416;23.232;2023-11-21T04:05:55;99728.47;;;7.40;75.68
33697;BME280;20031;43.416;23.232;2023-11-21T04:08:21;99732.56;;;7.43;75.93
33697;BME280;20031;43.416;23.232;2023-11-21T04:10:46;99737.75;;;7.43;75.62
33697;BME280;20031;43.416;23.232;2023-11-21T04:13:12;99723.00;;;7.43;75.39
33697;BME280;20031;43.416;23.232;2023-11-21T04:15:37;99723.00;;;7.43;75.32
33697;BME280;20031;43.416;23.232;2023-11-21T04:18:03;99716.34;;;7.41;75.45
33697;BME280;20031;43.416;23.232;2023-11-21T04:20:28;99724.25;;;7.39;75.01
33697;BME280;20031;43.416;23.232;2023-11-21T04:22:53;99718.84;;;7.33;74.60
33697;BME280;20031;43.416;23.232;2023-11-21T04:25:19;99716.56;;;7.30;74.39
33697;BME280;20031;43.416;23.232;2023-11-21T04:27:45;99707.31;;;7.27;74.47
33697;BME280;20031;43.416;23.232;2023-11-21T04:30:11;99712.34;;;7.29;74.78
33697;BME280;20031;43.416;23.232;2023-11-21T04:32:37;99721.59;;;7.31;75.16
33697;BME280;20031;43.416;23.232;2023-11-21T04:35:04;99702.66;;;7.31;75.69
33697;BME280;20031;43.416;23.232;2023-11-21T04:37:30;99701.81;;;7.30;75.76
33697;BME280;20031;43.416;23.232;2023-11-21T04:39:55;99706.50;;;7.27;75.73
33697;BME280;20031;43.416;23.232;2023-11-21T04:42:21;99704.34;;;7.22;76.29
33697;BME280;20031;43.416;23.232;2023-11-21T04:44:47;99696.72;;;7.21;76.77
33697;BME280;20031;43.416;23.232;2023-11-21T04:47:12;99696.72;;;7.21;76.91
33697;BME280;20031;43.416;23.232;2023-11-21T04:49:42;99688.66;;;7.24;76.99
33697;BME280;20031;43.416;23.232;2023-11-21T04:52:09;99686.22;;;7.22;77.62
33697;BME280;20031;43.416;23.232;2023-11-21T04:54:35;99685.78;;;7.27;77.81
33697;BME280;20031;43.416;23.232;2023-11-21T04:57:01;99682.19;;;7.28;77.90
33697;BME280;20031;43.416;23.232;2023-11-21T04:59:26;99684.53;;;7.31;78.12
33697;BME280;20031;43.416;23.232;2023-11-21T05:01:53;99688.44;;;7.35;78.70
33697;BME280;20031;43.416;23.232;2023-11-21T05:04:19;99683.94;;;7.37;79.32
33697;BME280;20031;43.416;23.232;2023-11-21T05:06:45;99697.53;;;7.39;79.09
33697;BME280;20031;43.416;23.232;2023-11-21T05:09:11;99693.31;;;7.38;79.39
33697;BME280;20031;43.416;23.232;2023-11-21T05:11:37;99701.63;;;7.41;79.53
33697;BME280;20031;43.416;23.232;2023-11-21T05:14:03;99694.50;;;7.43;79.62
33697;BME280;20031;43.416;23.232;2023-11-21T05:16:30;99690.16;;;7.44;79.68
33697;BME280;20031;43.416;23.232;2023-11-21T05:18:56;99695.84;;;7.47;79.23
33697;BME280;20031;43.416;23.232;2023-11-21T05:21:29;99693.09;;;7.49;79.57
33697;BME280;20031;43.416;23.232;2023-11-21T05:23:56;99694.22;;;7.46;79.44
33697;BME280;20031;43.416;23.232;2023-11-21T05:26:22;99701.31;;;7.44;78.75
33697;BME280;20031;43.416;23.232;2023-11-21T05:28:47;99699.69;;;7.43;78.56
33697;BME280;20031;43.416;23.232;2023-11-21T05:31:13;99699.84;;;7.42;78.32
33697;BME280;20031;43.416;23.232;2023-11-21T05:33:38;99698.22;;;7.41;77.77
33697;BME280;20031;43.416;23.232;2023-11-21T05:36:04;99708.16;;;7.45;78.24
33697;BME280;20031;43.416;23.232;2023-11-21T05:38:29;99700.38;;;7.45;77.43
33697;BME280;20031;43.416;23.232;2023-11-21T05:40:55;99702.81;;;7.47;77.43
33697;BME280;20031;43.416;23.232;2023-11-21T05:43:20;99710.59;;;7.47;77.77
33697;BME280;20031;43.416;23.232;2023-11-21T05:45:46;99697.63;;;7.47;77.57
33697;BME280;20031;43.416;23.232;2023-11-21T05:48:11;99692.97;;;7.50;77.79
33697;BME280;20031;43.416;23.232;2023-11-21T05:50:37;99704.81;;;7.53;77.72
33697;BME280;20031;43.416;23.232;2023-11-21T05:53:03;99703.84;;;7.54;77.69
33697;BME280;20031;43.416;23.232;2023-11-21T05:55:29;99706.94;;;7.57;77.28
33697;BME280;20031;43.416;23.232;2023-11-21T05:57:54;99722.34;;;7.59;77.12
33697;BME280;20031;43.416;23.232;2023-11-21T06:00:20;99716.22;;;7.60;76.68
33697;BME280;20031;43.416;23.232;2023-11-21T06:02:48;99719.16;;;7.64;77.22
33697;BME280;20031;43.416;23.232;2023-11-21T06:05:16;99717.75;;;7.70;76.96
33697;BME280;20031;43.416;23.232;2023-11-21T06:07:43;99711.16;;;7.75;76.59
33697;BME280;20031;43.416;23.232;2023-11-21T06:10:10;99709.38;;;7.76;76.13
33697;BME280;20031;43.416;23.232;2023-11-21T06:12:36;99707.09;;;7.73;76.23
33697;BME280;20031;43.416;23.232;2023-11-21T06:15:03;99715.84;;;7.72;76.28
33697;BME280;20031;43.416;23.232;2023-11-21T06:17:33;99720.72;;;7.75;76.56
33697;BME280;20031;43.416;23.232;2023-11-21T06:20:05;99713.47;;;7.78;76.29
33697;BME280;20031;43.416;23.232;2023-11-21T06:22:37;99715.44;;;7.84;75.78
33697;BME280;20031;43.416;23.232;2023-11-21T06:25:03;99708.06;;;7.89;75.80
33697;BME280;20031;43.416;23.232;2023-11-21T06:27:38;99705.81;;;7.94;75.25
33697;BME280;20031;43.416;23.232;2023-11-21T06:30:04;99700.00;;;8.00;75.51
33697;BME280;20031;43.416;23.232;2023-11-21T06:32:30;99708.16;;;8.05;75.48
33697;BME280;20031;43.416;23.232;2023-11-21T06:34:56;99704.03;;;8.12;75.75
33697;BME280;20031;43.416;23.232;2023-11-21T06:37:26;99704.38;;;8.17;76.21
33697;BME280;20031;43.416;23.232;2023-11-21T06:39:52;99708.00;;;8.24;76.20
33697;BME280;20031;43.416;23.232;2023-11-21T06:42:18;99710.81;;;8.30;75.96
33697;BME280;20031;43.416;23.232;2023-11-21T06:44:45;99710.34;;;8.35;74.90
33697;BME280;20031;43.416;23.232;2023-11-21T06:47:10;99711.38;;;8.42;74.98
33697;BME280;20031;43.416;23.232;2023-11-21T06:49:36;99710.59;;;8.49;74.73
33697;BME280;20031;43.416;23.232;2023-11-21T06:52:01;99715.16;;;8.55;74.44
33697;BME280;20031;43.416;23.232;2023-11-21T06:54:28;99716.66;;;8.58;74.01
33697;BME280;20031;43.416;23.232;2023-11-21T06:56:54;99709.66;;;8.58;73.51
33697;BME280;20031;43.416;23.232;2023-11-21T06:59:21;99708.91;;;8.65;73.42
33697;BME280;20031;43.416;23.232;2023-11-21T07:01:48;99709.78;;;8.82;73.38
33697;BME280;20031;43.416;23.232;2023-11-21T07:04:16;99711.00;;;8.95;73.45
33697;BME280;20031;43.416;23.232;2023-11-21T07:06:42;99714.28;;;9.05;73.29
33697;BME280;20031;43.416;23.232;2023-11-21T07:09:09;99719.16;;;9.16;72.80
33697;BME280;20031;43.416;23.232;2023-11-21T07:11:39;99710.44;;;9.33;73.01
33697;BME280;20031;43.416;23.232;2023-11-21T07:14:06;99702.84;;;9.47;72.75
33697;BME280;20031;43.416;23.232;2023-11-21T07:16:36;99698.00;;;9.68;71.64
33697;BME280;20031;43.416;23.232;2023-11-21T07:19:03;99697.34;;;9.74;70.39
33697;BME280;20031;43.416;23.232;2023-11-21T07:21:32;99699.63;;;9.69;69.68
33697;BME280;20031;43.416;23.232;2023-11-21T07:23:58;99699.63;;;9.77;69.87
33697;BME280;20031;43.416;23.232;2023-11-21T07:26:23;99693.47;;;9.86;69.86
33697;BME280;20031;43.416;23.232;2023-11-21T07:28:50;99696.56;;;10.05;69.60
33697;BME280;20031;43.416;23.232;2023-11-21T07:31:15;99693.44;;;10.33;69.08
33697;BME280;20031;43.416;23.232;2023-11-21T07:33:41;99695.03;;;10.50;68.20
33697;BME280;20031;43.416;23.232;2023-11-21T07:36:07;99690.19;;;10.85;68.18
33697;BME280;20031;43.416;23.232;2023-11-21T07:38:32;99697.69;;;11.18;67.29
33697;BME280;20031;43.416;23.232;2023-11-21T07:40:58;99690.88;;;11.48;66.30
33697;BME280;20031;43.416;23.232;2023-11-21T07:43:26;99685.84;;;11.69;65.60
33697;BME280;20031;43.416;23.232;2023-11-21T07:45:52;99689.28;;;12.06;64.64
33697;BME280;20031;43.416;23.232;2023-11-21T07:48:17;99686.34;;;12.23;63.27
33697;BME280;20031;43.416;23.232;2023-11-21T07:50:43;99683.31;;;12.34;62.14
33697;BME280;20031;43.416;23.232;2023-11-21T07:53:08;99679.78;;;12.56;61.74
33697;BME280;20031;43.416;23.232;2023-11-21T07:55:34;99682.94;;;12.66;61.51
33697;BME280;20031;43.416;23.232;2023-11-21T07:58:01;99666.03;;;12.90;61.37
33697;BME280;20031;43.416;23.232;2023-11-21T08:00:27;99680.16;;;12.96;60.34
33697;BME280;20031;43.416;23.232;2023-11-21T08:02:55;99667.91;;;12.82;60.36
33697;BME280;20031;43.416;23.232;2023-11-21T08:05:21;99674.03;;;12.74;60.99
33697;BME280;20031;43.416;23.232;2023-11-21T08:07:46;99668.72;;;12.82;61.36
33697;BME280;20031;43.416;23.232;2023-11-21T08:10:12;99658.59;;;13.08;61.49
33697;BME280;20031;43.416;23.232;2023-11-21T08:12:37;99653.66;;;13.34;60.81
33697;BME280;20031;43.416;23.232;2023-11-21T08:15:04;99653.97;;;13.66;60.69
33697;BME280;20031;43.416;23.232;2023-11-21T08:17:30;99660.88;;;13.74;59.76
33697;BME280;20031;43.416;23.232;2023-11-21T08:19:58;99648.66;;;13.80;59.54
33697;BME280;20031;43.416;23.232;2023-11-21T08:22:23;99653.56;;;13.63;58.66
33697;BME280;20031;43.416;23.232;2023-11-21T08:24:50;99652.91;;;13.61;58.70
33697;BME280;20031;43.416;23.232;2023-11-21T08:27:15;99655.28;;;13.76;59.32
33697;BME280;20031;43.416;23.232;2023-11-21T08:29:42;99652.44;;;13.72;57.63
33697;BME280;20031;43.416;23.232;2023-11-21T08:32:07;99659.66;;;13.70;58.17
33697;BME280;20031;43.416;23.232;2023-11-21T08:34:33;99647.34;;;14.12;57.96
33697;BME280;20031;43.416;23.232;2023-11-21T08:36:58;99639.44;;;14.73;57.65
33697;BME280;20031;43.416;23.232;2023-11-21T08:39:24;99642.94;;;15.32;56.45
33697;BME280;20031;43.416;23.232;2023-11-21T08:41:50;99632.06;;;15.68;54.24
33697;BME280;20031;43.416;23.232;2023-11-21T08:44:16;99635.72;;;15.92;52.40
33697;BME280;20031;43.416;23.232;2023-11-21T08:46:44;99624.22;;;15.93;50.57
33697;BME280;20031;43.416;23.232;2023-11-21T08:49:11;99630.88;;;15.96;50.64
33697;BME280;20031;43.416;23.232;2023-11-21T08:51:37;99619.34;;;15.90;50.47
33697;BME280;20031;43.416;23.232;2023-11-21T08:54:03;99624.00;;;16.01;50.49
33697;BME280;20031;43.416;23.232;2023-11-21T08:56:33;99622.41;;;16.13;50.34
33697;BME280;20031;43.416;23.232;2023-11-21T08:58:58;99615.06;;;16.22;49.77
33697;BME280;20031;43.416;23.232;2023-11-21T09:01:25;99608.44;;;16.32;49.92
33697;BME280;20031;43.416;23.232;2023-11-21T09:03:51;99601.97;;;16.35;49.75
33697;BME280;20031;43.416;23.232;2023-11-21T09:06:16;99602.13;;;16.46;49.05
33697;BME280;20031;43.416;23.232;2023-11-21T09:08:42;99596.88;;;16.39;49.12
33697;BME280;20031;43.416;23.232;2023-11-21T09:11:08;99585.38;;;16.40;49.52
33697;BME280;20031;43.416;23.232;2023-11-21T09:13:34;99584.53;;;16.40;49.14
33697;BME280;20031;43.416;23.232;2023-11-21T09:16:00;99568.97;;;16.38;49.64
33697;BME280;20031;43.416;23.232;2023-11-21T09:18:25;99566.50;;;16.50;49.38
33697;BME280;20031;43.416;23.232;2023-11-21T09:20:51;99557.34;;;16.65;49.75
33697;BME280;20031;43.416;23.232;2023-11-21T09:23:16;99558.34;;;16.71;49.12
33697;BME280;20031;43.416;23.232;2023-11-21T09:25:42;99537.25;;;16.84;47.72
33697;BME280;20031;43.416;23.232;2023-11-21T09:28:11;99552.00;;;16.85;47.76
33697;BME280;20031;43.416;23.232;2023-11-21T09:30:37;99537.84;;;16.86;48.04
33697;BME280;20031;43.416;23.232;2023-11-21T09:33:03;99541.63;;;16.96;47.39
33697;BME280;20031;43.416;23.232;2023-11-21T09:35:32;99532.25;;;17.06;47.08
33697;BME280;20031;43.416;23.232;2023-11-21T09:37:57;99525.44;;;17.30;46.55
33697;BME280;20031;43.416;23.232;2023-11-21T09:40:24;99518.78;;;17.51;45.49
33697;BME280;20031;43.416;23.232;2023-11-21T09:42:57;99504.19;;;17.73;44.50
33697;BME280;20031;43.416;23.232;2023-11-21T09:45:28;99490.47;;;17.89;43.59
33697;BME280;20031;43.416;23.232;2023-11-21T09:47:55;99486.88;;;18.01;42.35
33697;BME280;20031;43.416;23.232;2023-11-21T09:50:21;99479.84;;;18.13;42.08
33697;BME280;20031;43.416;23.232;2023-11-21T09:53:18;99465.81;;;18.37;41.72
33697;BME280;20031;43.416;23.232;2023-11-21T09:55:47;99460.88;;;18.41;40.71
33697;BME280;20031;43.416;23.232;2023-11-21T09:58:14;99452.00;;;18.53;40.92
33697;BME280;20031;43.416;23.232;2023-11-21T10:00:44;99446.81;;;18.76;41.71
33697;BME280;20031;43.416;23.232;2023-11-21T10:03:10;99444.28;;;18.81;40.98
33697;BME280;20031;43.416;23.232;2023-11-21T10:05:36;99448.09;;;18.85;41.17
33697;BME280;20031;43.416;23.232;2023-11-21T10:08:04;99448.09;;;18.85;40.56
33697;BME280;20031;43.416;23.232;2023-11-21T10:10:32;99437.19;;;18.81;41.74
33697;BME280;20031;43.416;23.232;2023-11-21T10:13:01;99442.34;;;18.88;42.23
33697;BME280;20031;43.416;23.232;2023-11-21T10:15:29;99441.06;;;18.79;42.48
33697;BME280;20031;43.416;23.232;2023-11-21T10:17:56;99447.50;;;18.71;43.22
33697;BME280;20031;43.416;23.232;2023-11-21T10:20:23;99434.06;;;18.73;43.19
33697;BME280;20031;43.416;23.232;2023-11-21T10:22:49;99421.41;;;18.63;43.18
33697;BME280;20031;43.416;23.232;2023-11-21T10:25:15;99424.94;;;18.57;43.08
33697;BME280;20031;43.416;23.232;2023-11-21T10:27:42;99417.34;;;18.49;43.20
33697;BME280;20031;43.416;23.232;2023-11-21T10:30:09;99417.97;;;18.34;43.25
33697;BME280;20031;43.416;23.232;2023-11-21T10:32:41;99416.31;;;18.21;43.84
33697;BME280;20031;43.416;23.232;2023-11-21T10:35:10;99397.03;;;18.03;44.18
33697;BME280;20031;43.416;23.232;2023-11-21T10:37:39;99399.94;;;17.84;44.73
33697;BME280;20031;43.416;23.232;2023-11-21T10:40:09;99391.75;;;17.74;45.31
33697;BME280;20031;43.416;23.232;2023-11-21T10:42:38;99390.00;;;17.68;45.34
33697;BME280;20031;43.416;23.232;2023-11-21T10:45:13;99376.44;;;17.64;45.67
33697;BME280;20031;43.416;23.232;2023-11-21T10:47:41;99378.72;;;17.61;45.52
33697;BME280;20031;43.416;23.232;2023-11-21T10:50:07;99374.69;;;17.58;45.10
33697;BME280;20031;43.416;23.232;2023-11-21T10:52:41;99368.97;;;17.61;45.34
33697;BME280;20031;43.416;23.232;2023-11-21T10:55:20;99364.88;;;17.65;45.48
33697;BME280;20031;43.416;23.232;2023-11-21T10:57:53;99359.41;;;17.67;46.02
33697;BME280;20031;43.416;23.232;2023-11-21T11:00:21;99357.03;;;17.59;45.75
33697;BME280;20031;43.416;23.232;2023-11-21T11:03:06;99366.97;;;17.39;46.54
33697;BME280;20031;43.416;23.232;2023-11-21T11:05:39;99354.41;;;17.23;46.68
33697;BME280;20031;43.416;23.232;2023-11-21T11:08:08;99355.66;;;17.14;47.21
33697;BME280;20031;43.416;23.232;2023-11-21T11:10:34;99351.63;;;17.12;47.15
33697;BME280;20031;43.416;23.232;2023-11-21T11:13:00;99350.25;;;17.09;46.99
33697;BME280;20031;43.416;23.232;2023-11-21T11:15:27;99352.28;;;17.07;47.33
33697;BME280;20031;43.416;23.232;2023-11-21T11:17:54;99350.09;;;17.04;47.68
33697;BME280;20031;43.416;23.232;2023-11-21T11:20:23;99356.97;;;17.05;48.17
33697;BME280;20031;43.416;23.232;2023-11-21T11:22:57;99359.53;;;17.12;48.28
33697;BME280;20031;43.416;23.232;2023-11-21T11:28:17;99356.16;;;17.05;49.09
33697;BME280;20031;43.416;23.232;2023-11-21T11:31:10;99348.47;;;17.03;49.41
33697;BME280;20031;43.416;23.232;2023-11-21T11:33:53;99348.25;;;17.05;49.60
33697;BME280;20031;43.416;23.232;2023-11-21T11:36:37;99359.00;;;17.03;49.59
33697;BME280;20031;43.416;23.232;2023-11-21T11:39:41;99352.41;;;16.94;48.99
33697;BME280;20031;43.416;23.232;2023-11-21T11:42:14;99347.41;;;16.86;49.24
33697;BME280;20031;43.416;23.232;2023-11-21T11:47:28;99342.66;;;16.77;49.40
33697;BME280;20031;43.416;23.232;2023-11-21T11:50:00;99323.06;;;16.73;49.19
33697;BME280;20031;43.416;23.232;2023-11-21T11:52:39;99332.56;;;16.74;49.59
33697;BME280;20031;43.416;23.232;2023-11-21T11:55:09;99333.38;;;16.75;49.32
33697;BME280;20031;43.416;23.232;2023-11-21T11:57:35;99335.38;;;16.73;49.48
33697;BME280;20031;43.416;23.232;2023-11-21T12:00:09;99327.72;;;16.71;49.68
33697;BME280;20031;43.416;23.232;2023-11-21T12:02:41;99329.75;;;16.69;49.56
33697;BME280;20031;43.416;23.232;2023-11-21T12:05:11;99322.09;;;16.68;49.52
33697;BME280;20031;43.416;23.232;2023-11-21T12:07:42;99315.22;;;16.67;49.43
33697;BME280;20031;43.416;23.232;2023-11-21T12:10:12;99315.66;;;16.64;50.09
33697;BME280;20031;43.416;23.232;2023-11-21T12:12:37;99318.91;;;16.59;50.37
33697;BME280;20031;43.416;23.232;2023-11-21T12:15:04;99312.25;;;16.57;50.44
33697;BME280;20031;43.416;23.232;2023-11-21T12:17:30;99309.25;;;16.53;50.23
33697;BME280;20031;43.416;23.232;2023-11-21T12:20:02;99311.72;;;16.48;50.78
33697;BME280;20031;43.416;23.232;2023-11-21T12:22:29;99311.34;;;16.45;51.03
33697;BME280;20031;43.416;23.232;2023-11-21T12:24:56;99308.53;;;16.40;51.51
33697;BME280;20031;43.416;23.232;2023-11-21T12:27:21;99301.72;;;16.33;51.52
33697;BME280;20031;43.416;23.232;2023-11-21T12:29:46;99307.25;;;16.25;51.88
33697;BME280;20031;43.416;23.232;2023-11-21T12:32:12;99298.59;;;16.18;52.12
33697;BME280;20031;43.416;23.232;2023-11-21T12:34:40;99305.47;;;16.12;52.70
33697;BME280;20031;43.416;23.232;2023-11-21T12:37:07;99298.88;;;16.03;53.07
33697;BME280;20031;43.416;23.232;2023-11-21T12:39:33;99304.53;;;16.00;53.66
33697;BME280;20031;43.416;23.232;2023-11-21T12:41:58;99303.78;;;15.93;53.56
33697;BME280;20031;43.416;23.232;2023-11-21T12:44:25;99304.19;;;15.90;53.57
33697;BME280;20031;43.416;23.232;2023-11-21T12:46:51;99291.53;;;15.81;53.78
33697;BME280;20031;43.416;23.232;2023-11-21T12:49:17;99301.19;;;15.81;53.69
33697;BME280;20031;43.416;23.232;2023-11-21T12:51:48;99295.38;;;15.79;53.63
33697;BME280;20031;43.416;23.232;2023-11-21T12:54:14;99300.03;;;15.77;53.73
33697;BME280;20031;43.416;23.232;2023-11-21T12:56:40;99296.22;;;15.73;53.66
33697;BME280;20031;43.416;23.232;2023-11-21T12:59:06;99300.47;;;15.67;53.82
33697;BME280;20031;43.416;23.232;2023-11-21T13:01:31;99302.72;;;15.64;54.88